createdAt,value
2022-09-06T00:01:54.212Z,1.77
2022-09-06T00:05:19.735Z,1.47
2022-09-06T00:08:45.325Z,1.40
2022-09-06T00:12:09.309Z,1.33
2022-09-06T00:15:34.060Z,1.60
2022-09-06T00:18:59.434Z,1.30
2022-09-06T00:22:23.058Z,1.40
2022-09-06T00:25:46.933Z,1.37
2022-09-06T00:29:10.830Z,1.30
2022-09-06T00:32:34.752Z,1.50
2022-09-06T00:36:01.664Z,1.40
2022-09-06T00:39:25.333Z,1.47
2022-09-06T00:42:49.351Z,1.30
2022-09-06T00:46:16.971Z,1.40
2022-09-06T00:49:45.455Z,1.20
2022-09-06T00:53:10.513Z,1.33
2022-09-06T00:56:36.620Z,1.43
2022-09-06T01:00:03.218Z,1.30
2022-09-06T01:03:27.678Z,1.17
2022-09-06T01:07:02.662Z,1.23
2022-09-06T01:10:58.259Z,1.50
2022-09-06T01:14:37.962Z,1.17
2022-09-06T01:18:13.944Z,1.40
2022-09-06T01:21:49.555Z,1.20
2022-09-06T01:25:35.701Z,1.50
2022-09-06T01:29:01.010Z,1.20
2022-09-06T01:32:33.329Z,1.40
2022-09-06T01:36:02.917Z,1.33
2022-09-06T01:39:30.164Z,1.30
2022-09-06T01:42:55.462Z,1.40
2022-09-06T01:46:28.117Z,1.40
2022-09-06T01:50:17.890Z,1.53
2022-09-06T01:54:15.617Z,1.43
2022-09-06T01:57:57.010Z,1.10
2022-09-06T02:01:29.569Z,1.43
2022-09-06T02:04:59.263Z,1.30
2022-09-06T02:08:30.453Z,1.47
2022-09-06T02:11:59.588Z,1.30
2022-09-06T02:15:26.721Z,1.60
2022-09-06T02:18:57.612Z,1.13
2022-09-06T02:22:27.446Z,1.80
2022-09-06T02:25:56.570Z,1.90
2022-09-06T02:29:20.893Z,1.80
2022-09-06T02:32:51.508Z,1.77
2022-09-06T02:36:16.682Z,2.10
2022-09-06T02:39:40.464Z,1.80
2022-09-06T02:43:04.326Z,1.40
2022-09-06T02:46:28.252Z,1.63
2022-09-06T02:49:51.787Z,1.57
2022-09-06T02:53:17.317Z,1.50
2022-09-06T02:56:41.416Z,1.43
2022-09-06T03:00:06.191Z,1.30
2022-09-06T03:03:29.850Z,1.80
2022-09-06T03:06:53.737Z,1.70
2022-09-06T03:10:21.395Z,1.40
2022-09-06T03:13:44.977Z,1.53
2022-09-06T03:17:08.878Z,1.63
2022-09-06T03:20:36.852Z,1.57
2022-09-06T03:24:00.779Z,1.70
2022-09-06T03:27:26.058Z,1.67
2022-09-06T03:30:51.635Z,1.60
2022-09-06T03:34:15.479Z,1.70
2022-09-06T03:37:39.239Z,2.00
2022-09-06T03:41:03.000Z,1.90
2022-09-06T03:44:27.862Z,1.87
2022-09-06T03:47:51.721Z,1.57
2022-09-06T03:51:15.499Z,1.60
2022-09-06T03:54:39.042Z,1.60
2022-09-06T03:58:03.086Z,1.60
2022-09-06T04:01:28.696Z,1.63
2022-09-06T04:04:55.396Z,1.60
2022-09-06T04:08:19.284Z,1.23
2022-09-06T04:11:45.150Z,1.60
2022-09-06T04:15:10.187Z,1.63
2022-09-06T04:18:35.471Z,1.60
2022-09-06T04:21:59.028Z,1.70
2022-09-06T04:25:22.983Z,1.57
2022-09-06T04:28:46.755Z,1.33
2022-09-06T04:32:10.398Z,1.70
2022-09-06T04:35:35.729Z,1.63
2022-09-06T04:38:59.615Z,1.50
2022-09-06T04:42:23.219Z,1.83
2022-09-06T04:45:47.117Z,1.87
2022-09-06T04:49:11.093Z,1.90
2022-09-06T04:52:36.392Z,1.73
2022-09-06T04:56:00.494Z,1.87
2022-09-06T04:59:24.484Z,1.80
2022-09-06T05:02:48.521Z,2.30
2022-09-06T05:06:16.344Z,1.97
2022-09-06T05:09:41.614Z,1.67
2022-09-06T05:13:05.554Z,1.60
2022-09-06T05:16:29.498Z,1.67
2022-09-06T05:19:53.427Z,1.80
2022-09-06T05:23:17.785Z,1.63
2022-09-06T05:26:43.050Z,1.60
2022-09-06T05:30:07.759Z,2.20
2022-09-06T05:33:31.640Z,1.77
2022-09-06T05:36:55.540Z,1.67
2022-09-06T05:40:19.419Z,1.80
2022-09-06T05:43:44.688Z,2.07
2022-09-06T05:47:08.801Z,1.90
2022-09-06T05:50:32.665Z,1.80
2022-09-06T05:53:56.741Z,1.93
2022-09-06T05:57:20.632Z,1.83
2022-09-06T06:00:45.600Z,1.87
2022-09-06T06:04:09.469Z,2.00
2022-09-06T06:07:33.498Z,1.83
2022-09-06T06:11:01.336Z,1.90
2022-09-06T06:14:25.247Z,1.43
2022-09-06T06:17:50.510Z,1.73
2022-09-06T06:21:16.368Z,1.57
2022-09-06T06:24:40.343Z,1.40
2022-09-06T06:28:04.562Z,1.40
2022-09-06T06:31:28.635Z,1.57
2022-09-06T06:34:53.922Z,1.70
2022-09-06T06:38:17.827Z,1.60
2022-09-06T06:41:41.768Z,2.00
2022-09-06T06:53:52.700Z,1.90
2022-09-06T06:57:16.664Z,1.70
2022-09-06T07:00:40.964Z,1.93
2022-09-06T07:04:05.912Z,2.10
2022-09-06T07:10:59.416Z,1.97
2022-09-06T07:14:23.282Z,1.90
2022-09-06T07:17:47.200Z,1.70
2022-09-06T07:24:57.174Z,1.43
2022-09-06T07:28:23.555Z,1.73
2022-09-06T07:35:31.001Z,1.50
2022-09-06T07:38:55.202Z,1.77
2022-09-06T07:42:18.878Z,1.40
2022-09-06T07:45:43.777Z,1.90
2022-09-06T07:49:08.171Z,1.50
2022-09-06T07:56:15.395Z,1.47
2022-09-06T07:59:42.420Z,1.30
2022-09-06T08:03:07.900Z,1.33
2022-09-06T08:10:19.033Z,1.40
2022-09-06T08:13:43.356Z,1.53
2022-09-06T08:17:07.356Z,1.40
2022-09-06T08:20:32.359Z,1.40
2022-09-06T08:23:59.920Z,1.40
2022-09-06T08:27:23.542Z,1.50
2022-09-06T08:30:47.416Z,1.70
2022-09-06T08:34:12.644Z,1.33
2022-09-06T08:37:37.688Z,1.23
2022-09-06T08:41:11.661Z,1.33
2022-09-06T08:44:56.663Z,1.33
2022-09-06T08:48:21.942Z,1.20
2022-09-06T08:52:12.800Z,1.20
2022-09-06T08:55:45.895Z,1.20
2022-09-06T08:59:17.553Z,1.60
2022-09-06T09:02:47.681Z,1.27
2022-09-06T09:06:12.531Z,1.20
2022-09-06T09:09:36.797Z,1.40
2022-09-06T09:13:05.735Z,1.17
2022-09-06T09:16:30.145Z,1.30
2022-09-06T09:19:53.744Z,1.10
2022-09-06T09:23:17.663Z,1.33
2022-09-06T09:26:51.535Z,1.50
2022-09-06T09:34:04.515Z,1.33
2022-09-06T09:41:25.600Z,1.20
2022-09-06T09:44:49.631Z,1.40
2022-09-06T09:48:30.757Z,1.30
2022-09-06T09:52:08.269Z,1.10
2022-09-06T09:55:32.172Z,1.30
2022-09-06T09:58:58.912Z,1.50
2022-09-06T10:02:26.765Z,1.50
2022-09-06T10:06:02.809Z,1.50
2022-09-06T10:09:36.929Z,1.47
2022-09-06T10:13:23.692Z,1.20
2022-09-06T10:16:47.185Z,1.47
2022-09-06T10:20:13.523Z,2.07
2022-09-06T10:28:10.527Z,1.40
2022-09-06T10:32:07.324Z,1.37
2022-09-06T10:35:37.960Z,1.43
2022-09-06T10:39:08.728Z,1.40
2022-09-06T10:42:42.484Z,1.50
2022-09-06T10:46:16.418Z,1.00
2022-09-06T10:49:45.051Z,1.10
2022-09-06T10:53:17.433Z,1.10
2022-09-06T10:56:49.661Z,1.20
2022-09-06T11:00:16.560Z,1.60
2022-09-06T11:04:04.120Z,1.40
2022-09-06T11:07:33.754Z,1.33
2022-09-06T11:10:59.479Z,1.40
2022-09-06T11:14:28.692Z,1.27
2022-09-06T11:18:01.536Z,1.53
2022-09-06T11:21:50.395Z,1.57
2022-09-06T11:25:47.620Z,1.73
2022-09-06T11:29:18.917Z,1.60
2022-09-06T11:32:48.917Z,1.47
2022-09-06T11:36:29.739Z,2.00
2022-09-06T11:43:51.612Z,1.70
2022-09-06T11:47:37.889Z,1.50
2022-09-06T11:51:10.875Z,2.03
2022-09-06T11:54:47.432Z,1.40
2022-09-06T11:58:23.777Z,1.60
2022-09-06T12:02:02.260Z,1.50
2022-09-06T12:05:29.238Z,1.90
2022-09-06T12:08:55.874Z,1.77
2022-09-06T12:12:41.628Z,1.60
2022-09-06T12:16:05.413Z,1.27
2022-09-06T12:19:44.997Z,1.17
2022-09-06T12:23:08.796Z,1.57
2022-09-06T12:26:55.741Z,1.33
2022-09-06T12:30:37.194Z,1.10
2022-09-06T12:34:06.371Z,1.30
2022-09-06T12:37:39.040Z,1.10
2022-09-06T12:41:05.756Z,1.50
2022-09-06T12:44:34.686Z,1.23
2022-09-06T12:48:09.696Z,1.40
2022-09-06T12:51:34.987Z,1.40
2022-09-06T12:54:58.799Z,1.23
2022-09-06T12:58:29.791Z,1.40
2022-09-06T13:02:02.727Z,1.40
2022-09-06T13:05:27.712Z,1.20
2022-09-06T13:08:54.614Z,1.57
2022-09-06T13:12:27.255Z,1.40
2022-09-06T13:15:51.526Z,1.63
2022-09-06T13:19:19.901Z,1.40
2022-09-06T13:22:47.369Z,1.50
2022-09-06T13:26:11.800Z,1.63
2022-09-06T13:29:36.653Z,1.60
2022-09-06T13:33:01.776Z,1.40
2022-09-06T13:36:30.653Z,1.43
2022-09-06T13:39:54.875Z,1.50
2022-09-06T13:43:24.703Z,2.00
2022-09-06T13:46:53.344Z,1.63
2022-09-06T13:50:17.231Z,1.63
2022-09-06T13:53:42.804Z,1.50
2022-09-06T13:57:06.760Z,1.50
2022-09-06T14:00:31.199Z,1.30
2022-09-06T14:03:55.730Z,1.60
2022-09-06T14:07:19.595Z,1.80
2022-09-06T14:10:46.202Z,1.53
2022-09-06T14:14:11.203Z,1.60
2022-09-06T14:17:34.842Z,1.40
2022-09-06T14:20:59.242Z,1.80
2022-09-06T14:24:23.149Z,1.90
2022-09-06T14:27:48.696Z,2.10
2022-09-06T14:31:14.418Z,1.90
2022-09-06T14:34:38.253Z,1.97
2022-09-06T14:38:02.101Z,1.73
2022-09-06T14:41:26.617Z,1.80
2022-09-06T14:44:51.605Z,2.20
2022-09-06T14:48:15.770Z,1.83
2022-09-06T14:51:40.659Z,1.70
2022-09-06T14:55:04.875Z,1.90
2022-09-06T14:58:28.454Z,1.77
2022-09-06T15:01:54.024Z,2.10
2022-09-06T15:05:18.938Z,1.70
2022-09-06T15:08:43.508Z,1.80
2022-09-06T15:12:07.889Z,1.77
2022-09-06T15:15:31.853Z,1.80
2022-09-06T15:18:56.880Z,1.47
2022-09-06T15:22:20.790Z,1.40
2022-09-06T15:25:50.130Z,1.47
2022-09-06T15:29:15.704Z,1.50
2022-09-06T15:32:39.366Z,1.60
2022-09-06T15:36:06.960Z,1.43
2022-09-06T15:39:31.228Z,1.40
2022-09-06T15:42:55.224Z,1.10
2022-09-06T15:46:21.158Z,1.30
2022-09-06T15:49:45.335Z,1.17
2022-09-06T15:53:10.671Z,1.30
2022-09-06T15:56:35.288Z,1.23
2022-09-06T15:59:59.277Z,1.40
2022-09-06T16:03:23.226Z,1.27
2022-09-06T16:06:47.215Z,1.77
2022-09-06T16:10:13.398Z,1.90
2022-09-06T16:13:38.451Z,1.60
2022-09-06T16:17:02.196Z,1.50
2022-09-06T16:20:27.867Z,1.77
2022-09-06T16:23:55.186Z,1.50
2022-09-06T16:27:20.605Z,1.30
2022-09-06T16:30:45.326Z,1.53
2022-09-06T16:34:09.520Z,1.40
2022-09-06T16:37:33.554Z,1.33
2022-09-06T16:40:57.162Z,1.53
2022-09-06T16:44:22.189Z,1.20
2022-09-06T16:47:46.476Z,1.27
2022-09-06T16:51:12.940Z,1.13
2022-09-06T16:54:37.128Z,1.50
2022-09-06T16:58:01.113Z,1.17
2022-09-06T17:01:28.404Z,1.47
2022-09-06T17:04:53.824Z,1.50
2022-09-06T17:08:18.028Z,1.33
2022-09-06T17:11:42.437Z,2.37
2022-09-06T17:15:07.498Z,2.80
2022-09-06T17:18:33.048Z,3.30
2022-09-06T17:21:56.768Z,3.93
2022-09-06T17:25:20.458Z,2.83
2022-09-06T17:28:44.841Z,2.47
2022-09-06T17:32:10.388Z,4.17
2022-09-06T17:35:35.652Z,4.97
2022-09-06T17:39:04.903Z,4.70
2022-09-06T17:42:30.532Z,3.10
2022-09-06T17:45:54.683Z,2.57
2022-09-06T17:49:19.131Z,2.27
2022-09-06T17:52:44.200Z,2.27
2022-09-06T17:56:10.050Z,2.30
2022-09-06T17:59:35.711Z,1.83
2022-09-06T18:03:00.040Z,1.47
2022-09-06T18:06:26.672Z,2.00
2022-09-06T18:09:51.781Z,1.43
2022-09-06T18:13:15.709Z,1.23
2022-09-06T18:16:41.761Z,1.37
2022-09-06T18:20:06.797Z,1.50
2022-09-06T18:52:19.719Z,1.80
2022-09-06T18:55:45.028Z,2.23
2022-09-06T18:59:10.804Z,1.90
2022-09-06T19:02:34.822Z,1.53
2022-09-06T19:06:03.760Z,2.83
2022-09-06T19:09:27.405Z,3.03
2022-09-06T19:12:53.371Z,2.50
2022-09-06T19:16:17.823Z,2.80
2022-09-06T19:19:42.017Z,2.17
2022-09-06T19:23:06.012Z,2.07
2022-09-06T19:26:32.117Z,1.50
2022-09-06T19:29:57.572Z,1.80
2022-09-06T19:33:21.693Z,1.47
2022-09-06T19:36:46.990Z,1.23
2022-09-06T19:40:12.103Z,1.40
2022-09-06T19:43:36.592Z,1.30
2022-09-06T19:47:02.053Z,1.60
2022-09-06T19:50:26.143Z,1.30
2022-09-06T19:53:53.993Z,1.40
2022-09-06T19:57:17.919Z,1.50
2022-09-06T20:00:43.131Z,1.40
2022-09-06T20:04:10.699Z,1.40
2022-09-06T20:07:34.324Z,1.53
2022-09-06T20:11:00.597Z,1.63
2022-09-06T20:14:26.123Z,1.40
2022-09-06T20:17:52.123Z,1.43
2022-09-06T20:21:18.881Z,1.57
2022-09-06T20:24:42.968Z,1.20
2022-09-06T20:28:07.635Z,1.13
2022-09-06T20:31:33.673Z,1.23
2022-09-06T20:34:57.995Z,1.37
2022-09-06T20:38:23.137Z,1.30
2022-09-06T20:41:47.181Z,1.33
2022-09-06T20:45:12.049Z,1.20
2022-09-06T20:48:42.117Z,1.50
2022-09-06T20:52:08.611Z,1.20
2022-09-06T20:55:34.275Z,1.40
2022-09-06T20:59:00.733Z,1.23
2022-09-06T21:02:24.475Z,1.33
2022-09-06T21:05:49.019Z,1.27
2022-09-06T21:09:14.942Z,1.37
2022-09-06T21:12:39.897Z,1.17
2022-09-06T21:16:04.863Z,1.33
2022-09-06T21:19:28.511Z,1.60
2022-09-06T21:22:52.157Z,1.77
2022-09-06T21:26:17.178Z,1.87
2022-09-06T21:29:42.344Z,2.00
2022-09-06T21:33:06.327Z,1.53
2022-09-06T21:36:32.693Z,1.40
2022-09-06T21:39:56.649Z,1.30
2022-09-06T21:43:21.068Z,1.10
2022-09-06T21:46:46.592Z,1.30
2022-09-06T21:50:11.251Z,1.00
2022-09-06T21:53:35.554Z,1.23
2022-09-06T21:56:59.440Z,1.30
2022-09-06T22:00:23.102Z,1.53
2022-09-06T22:03:48.567Z,1.33
2022-09-06T22:07:12.215Z,1.60
2022-09-06T22:10:35.898Z,1.43
2022-09-06T22:14:01.564Z,1.40
2022-09-06T22:17:25.592Z,1.40
2022-09-06T22:20:50.899Z,1.10
2022-09-06T22:24:17.489Z,1.30
2022-09-06T22:27:41.764Z,1.30
2022-09-06T22:31:06.343Z,1.43
2022-09-06T22:34:30.356Z,1.20
2022-09-06T22:37:55.366Z,1.20
2022-09-06T22:41:19.308Z,1.23
2022-09-06T22:44:42.948Z,1.20
2022-09-06T22:48:06.919Z,1.40
2022-09-06T22:51:30.863Z,1.10
2022-09-06T22:54:56.175Z,1.60
2022-09-06T22:58:20.034Z,1.40
2022-09-06T23:01:44.418Z,1.20
2022-09-06T23:05:08.920Z,1.20
2022-09-06T23:08:33.498Z,1.30
2022-09-06T23:11:58.525Z,1.20
2022-09-06T23:15:22.488Z,1.30
2022-09-06T23:18:46.389Z,1.10
2022-09-06T23:22:11.669Z,1.40
2022-09-06T23:25:38.840Z,1.00
2022-09-06T23:29:04.140Z,1.20
2022-09-06T23:32:28.613Z,1.10
2022-09-06T23:35:56.196Z,0.87
2022-09-06T23:39:20.260Z,1.20
2022-09-06T23:42:44.208Z,1.10
2022-09-06T23:46:10.986Z,1.17
2022-09-06T23:49:34.853Z,1.00
2022-09-06T23:52:58.795Z,1.00
2022-09-06T23:56:22.719Z,1.10
2022-09-06T23:59:46.679Z,0.97
